sensor_id;sensor_type;location;lat;lon;timestamp;pressure;altitude;pressure_sealevel;temperature;humidity
9740;BME280;4909;42.680;26.324;2024-03-29T00:02:20;98254.84;;;15.16;93.79
9740;BME280;4909;42.680;26.324;2024-03-29T00:04:46;98263.53;;;15.19;94.59
9740;BME280;4909;42.680;26.324;2024-03-29T00:07:11;98266.84;;;15.23;94.27
9740;BME280;4909;42.680;26.324;2024-03-29T00:09:39;98259.84;;;14.95;95.30
9740;BME280;4909;42.680;26.324;2024-03-29T00:12:06;98255.97;;;14.87;96.08
9740;BME280;4909;42.680;26.324;2024-03-29T00:14:32;98253.09;;;14.90;96.35
9740;BME280;4909;42.680;26.324;2024-03-29T00:16:58;98249.69;;;14.88;96.28
9740;BME280;4909;42.680;26.324;2024-03-29T00:19:24;98249.50;;;15.03;95.83
9740;BME280;4909;42.680;26.324;2024-03-29T00:21:50;98245.50;;;14.96;96.01
9740;BME280;4909;42.680;26.324;2024-03-29T00:24:16;98253.66;;;15.07;95.75
9740;BME280;4909;42.680;26.324;2024-03-29T00:26:43;98234.00;;;14.96;95.20
9740;BME280;4909;42.680;26.324;2024-03-29T00:29:09;98248.31;;;15.07;95.32
9740;BME280;4909;42.680;26.324;2024-03-29T00:31:35;98253.22;;;14.88;96.03
9740;BME280;4909;42.680;26.324;2024-03-29T00:34:01;98247.31;;;14.83;96.16
9740;BME280;4909;42.680;26.324;2024-03-29T00:36:27;98251.47;;;14.87;96.39
9740;BME280;4909;42.680;26.324;2024-03-29T00:38:53;98249.81;;;14.86;96.47
9740;BME280;4909;42.680;26.324;2024-03-29T00:41:18;98239.22;;;14.85;96.22
9740;BME280;4909;42.680;26.324;2024-03-29T00:43:46;98250.63;;;14.87;96.36
9740;BME280;4909;42.680;26.324;2024-03-29T00:46:12;98232.78;;;14.74;97.04
9740;BME280;4909;42.680;26.324;2024-03-29T00:48:38;98239.72;;;14.77;97.28
9740;BME280;4909;42.680;26.324;2024-03-29T00:51:04;98230.97;;;14.75;97.15
9740;BME280;4909;42.680;26.324;2024-03-29T00:53:30;98238.75;;;14.65;97.16
9740;BME280;4909;42.680;26.324;2024-03-29T00:55:56;98242.06;;;14.82;97.02
9740;BME280;4909;42.680;26.324;2024-03-29T00:58:22;98237.59;;;14.82;96.33
9740;BME280;4909;42.680;26.324;2024-03-29T01:00:49;98229.47;;;14.84;95.96
9740;BME280;4909;42.680;26.324;2024-03-29T01:03:15;98225.16;;;14.68;96.72
9740;BME280;4909;42.680;26.324;2024-03-29T01:05:41;98230.97;;;14.75;96.11
9740;BME280;4909;42.680;26.324;2024-03-29T01:08:07;98235.69;;;14.84;95.46
9740;BME280;4909;42.680;26.324;2024-03-29T01:10:33;98235.03;;;14.81;95.15
9740;BME280;4909;42.680;26.324;2024-03-29T01:12:59;98239.00;;;14.88;94.49
9740;BME280;4909;42.680;26.324;2024-03-29T01:15:25;98227.53;;;14.73;95.42
9740;BME280;4909;42.680;26.324;2024-03-29T01:17:52;98232.22;;;14.69;95.47
9740;BME280;4909;42.680;26.324;2024-03-29T01:20:18;98224.22;;;14.69;95.28
9740;BME280;4909;42.680;26.324;2024-03-29T01:22:44;98216.38;;;14.54;95.63
9740;BME280;4909;42.680;26.324;2024-03-29T01:25:10;98218.19;;;14.53;96.36
9740;BME280;4909;42.680;26.324;2024-03-29T01:27:36;98212.84;;;14.53;95.91
9740;BME280;4909;42.680;26.324;2024-03-29T01:30:02;98231.22;;;14.58;95.93
9740;BME280;4909;42.680;26.324;2024-03-29T01:32:28;98231.09;;;14.47;96.83
9740;BME280;4909;42.680;26.324;2024-03-29T01:34:55;98246.91;;;14.50;96.70
9740;BME280;4909;42.680;26.324;2024-03-29T01:37:21;98238.06;;;14.35;97.22
9740;BME280;4909;42.680;26.324;2024-03-29T01:39:47;98237.59;;;14.43;97.07
9740;BME280;4909;42.680;26.324;2024-03-29T01:42:13;98238.50;;;14.56;96.49
9740;BME280;4909;42.680;26.324;2024-03-29T01:44:39;98240.53;;;14.52;96.83
9740;BME280;4909;42.680;26.324;2024-03-29T01:47:06;98239.69;;;14.64;96.39
9740;BME280;4909;42.680;26.324;2024-03-29T01:49:34;98230.59;;;14.67;95.83
9740;BME280;4909;42.680;26.324;2024-03-29T01:52:02;98246.53;;;14.68;95.08
9740;BME280;4909;42.680;26.324;2024-03-29T01:54:30;98250.38;;;14.64;94.98
9740;BME280;4909;42.680;26.324;2024-03-29T01:56:58;98257.28;;;14.54;95.95
9740;BME280;4909;42.680;26.324;2024-03-29T01:59:25;98250.44;;;14.50;96.58
9740;BME280;4909;42.680;26.324;2024-03-29T02:01:53;98252.66;;;14.44;96.61
9740;BME280;4909;42.680;26.324;2024-03-29T02:04:20;98264.25;;;14.57;95.88
9740;BME280;4909;42.680;26.324;2024-03-29T02:06:48;98264.25;;;14.57;95.57
9740;BME280;4909;42.680;26.324;2024-03-29T02:09:16;98267.41;;;14.49;96.14
9740;BME280;4909;42.680;26.324;2024-03-29T02:11:43;98250.84;;;14.44;96.36
9740;BME280;4909;42.680;26.324;2024-03-29T02:14:10;98263.78;;;14.50;96.58
9740;BME280;4909;42.680;26.324;2024-03-29T02:16:38;98268.06;;;14.53;96.24
9740;BME280;4909;42.680;26.324;2024-03-29T02:19:03;98239.97;;;14.33;96.15
9740;BME280;4909;42.680;26.324;2024-03-29T02:21:33;98282.56;;;14.49;96.52
9740;BME280;4909;42.680;26.324;2024-03-29T02:24:07;98285.06;;;14.52;95.92
9740;BME280;4909;42.680;26.324;2024-03-29T02:26:34;98285.09;;;14.64;95.11
9740;BME280;4909;42.680;26.324;2024-03-29T02:29:07;98292.47;;;14.61;94.80
9740;BME280;4909;42.680;26.324;2024-03-29T02:31:34;98296.09;;;14.60;94.85
9740;BME280;4909;42.680;26.324;2024-03-29T02:34:01;98307.66;;;14.73;94.05
9740;BME280;4909;42.680;26.324;2024-03-29T02:36:28;98299.09;;;14.68;93.18
9740;BME280;4909;42.680;26.324;2024-03-29T02:38:55;98323.66;;;14.60;93.88
9740;BME280;4909;42.680;26.324;2024-03-29T02:41:23;98319.78;;;14.52;94.15
9740;BME280;4909;42.680;26.324;2024-03-29T02:43:51;98317.25;;;14.63;93.14
9740;BME280;4909;42.680;26.324;2024-03-29T02:46:18;98321.91;;;14.47;93.42
9740;BME280;4909;42.680;26.324;2024-03-29T02:48:45;98330.00;;;14.45;93.39
9740;BME280;4909;42.680;26.324;2024-03-29T02:51:11;98326.81;;;14.53;92.53
9740;BME280;4909;42.680;26.324;2024-03-29T02:53:41;98336.66;;;14.52;92.31
9740;BME280;4909;42.680;26.324;2024-03-29T02:56:07;98330.75;;;14.33;92.78
9740;BME280;4909;42.680;26.324;2024-03-29T02:58:35;98334.13;;;14.22;93.42
9740;BME280;4909;42.680;26.324;2024-03-29T03:01:06;98323.22;;;14.25;93.37
9740;BME280;4909;42.680;26.324;2024-03-29T03:03:32;98343.03;;;14.50;92.00
9740;BME280;4909;42.680;26.324;2024-03-29T03:06:02;98346.31;;;14.26;92.92
9740;BME280;4909;42.680;26.324;2024-03-29T03:08:29;98338.88;;;14.31;92.83
9740;BME280;4909;42.680;26.324;2024-03-29T03:11:14;98361.94;;;14.47;91.65
9740;BME280;4909;42.680;26.324;2024-03-29T03:13:44;98361.72;;;14.35;91.60
9740;BME280;4909;42.680;26.324;2024-03-29T03:16:11;98361.38;;;14.27;91.74
9740;BME280;4909;42.680;26.324;2024-03-29T03:18:41;98363.50;;;14.37;90.83
9740;BME280;4909;42.680;26.324;2024-03-29T03:21:07;98352.81;;;14.08;91.85
9740;BME280;4909;42.680;26.324;2024-03-29T03:23:34;98370.44;;;14.25;91.10
9740;BME280;4909;42.680;26.324;2024-03-29T03:26:02;98352.91;;;14.07;90.95
9740;BME280;4909;42.680;26.324;2024-03-29T03:28:29;98363.88;;;14.16;91.58
9740;BME280;4909;42.680;26.324;2024-03-29T03:31:00;98371.56;;;14.21;90.12
9740;BME280;4909;42.680;26.324;2024-03-29T03:33:28;98368.72;;;14.10;90.32
9740;BME280;4909;42.680;26.324;2024-03-29T03:35:54;98368.44;;;14.00;90.94
9740;BME280;4909;42.680;26.324;2024-03-29T03:38:21;98381.41;;;14.06;90.26
9740;BME280;4909;42.680;26.324;2024-03-29T03:40:47;98374.06;;;13.96;90.86
9740;BME280;4909;42.680;26.324;2024-03-29T03:43:20;98371.31;;;13.97;89.76
9740;BME280;4909;42.680;26.324;2024-03-29T03:45:46;98397.41;;;14.06;89.08
9740;BME280;4909;42.680;26.324;2024-03-29T03:48:14;98380.63;;;13.90;89.82
9740;BME280;4909;42.680;26.324;2024-03-29T03:50:41;98391.59;;;14.00;90.28
9740;BME280;4909;42.680;26.324;2024-03-29T03:53:09;98386.09;;;14.03;90.54
9740;BME280;4909;42.680;26.324;2024-03-29T03:55:38;98389.59;;;14.17;89.09
9740;BME280;4909;42.680;26.324;2024-03-29T03:58:07;98398.66;;;14.15;88.85
9740;BME280;4909;42.680;26.324;2024-03-29T04:00:33;98389.97;;;13.83;89.44
9740;BME280;4909;42.680;26.324;2024-03-29T04:03:00;98406.72;;;13.85;90.19
9740;BME280;4909;42.680;26.324;2024-03-29T04:05:27;98406.13;;;13.66;90.95
9740;BME280;4909;42.680;26.324;2024-03-29T04:07:57;98400.50;;;13.56;91.89
9740;BME280;4909;42.680;26.324;2024-03-29T04:10:24;98386.47;;;13.38;90.39
9740;BME280;4909;42.680;26.324;2024-03-29T04:12:51;98425.38;;;13.57;89.81
9740;BME280;4909;42.680;26.324;2024-03-29T04:15:17;98384.06;;;13.64;88.46
9740;BME280;4909;42.680;26.324;2024-03-29T04:17:44;98422.16;;;13.80;88.70
9740;BME280;4909;42.680;26.324;2024-03-29T04:20:10;98426.38;;;13.84;88.35
9740;BME280;4909;42.680;26.324;2024-03-29T04:22:38;98440.94;;;13.78;87.94
9740;BME280;4909;42.680;26.324;2024-03-29T04:25:07;98426.66;;;13.79;88.47
9740;BME280;4909;42.680;26.324;2024-03-29T04:27:34;98418.97;;;14.03;86.04
9740;BME280;4909;42.680;26.324;2024-03-29T04:30:00;98437.25;;;13.95;87.40
9740;BME280;4909;42.680;26.324;2024-03-29T04:32:28;98453.84;;;14.14;86.14
9740;BME280;4909;42.680;26.324;2024-03-29T04:34:54;98446.81;;;14.13;86.29
9740;BME280;4909;42.680;26.324;2024-03-29T04:37:24;98458.44;;;14.26;86.04
9740;BME280;4909;42.680;26.324;2024-03-29T04:39:52;98463.78;;;14.41;84.44
9740;BME280;4909;42.680;26.324;2024-03-29T04:42:19;98470.84;;;14.42;85.24
9740;BME280;4909;42.680;26.324;2024-03-29T04:44:46;98454.81;;;14.56;83.61
9740;BME280;4909;42.680;26.324;2024-03-29T04:47:13;98455.75;;;14.69;82.86
9740;BME280;4909;42.680;26.324;2024-03-29T04:49:40;98481.88;;;14.78;83.06
9740;BME280;4909;42.680;26.324;2024-03-29T04:52:07;98481.78;;;14.79;82.56
9740;BME280;4909;42.680;26.324;2024-03-29T04:54:35;98494.00;;;14.84;82.12
9740;BME280;4909;42.680;26.324;2024-03-29T04:57:03;98479.97;;;14.80;82.60
9740;BME280;4909;42.680;26.324;2024-03-29T04:59:32;98490.81;;;14.91;84.04
9740;BME280;4909;42.680;26.324;2024-03-29T05:01:59;98494.72;;;15.00;84.12
9740;BME280;4909;42.680;26.324;2024-03-29T05:04:26;98495.66;;;15.13;84.19
9740;BME280;4909;42.680;26.324;2024-03-29T05:06:54;98501.34;;;15.21;83.03
9740;BME280;4909;42.680;26.324;2024-03-29T05:09:21;98491.50;;;15.21;83.83
9740;BME280;4909;42.680;26.324;2024-03-29T05:11:49;98496.16;;;15.32;83.88
9740;BME280;4909;42.680;26.324;2024-03-29T05:14:20;98510.25;;;15.48;83.49
9740;BME280;4909;42.680;26.324;2024-03-29T05:16:50;98499.69;;;15.59;84.72
9740;BME280;4909;42.680;26.324;2024-03-29T05:19:17;98504.88;;;15.75;84.34
9740;BME280;4909;42.680;26.324;2024-03-29T05:21:44;98515.19;;;15.81;84.73
9740;BME280;4909;42.680;26.324;2024-03-29T05:24:11;98486.16;;;15.75;84.28
9740;BME280;4909;42.680;26.324;2024-03-29T05:26:38;98491.47;;;15.62;83.92
9740;BME280;4909;42.680;26.324;2024-03-29T05:29:04;98519.88;;;15.78;81.28
9740;BME280;4909;42.680;26.324;2024-03-29T05:31:34;98511.84;;;15.78;80.94
9740;BME280;4909;42.680;26.324;2024-03-29T05:34:01;98519.81;;;16.04;79.10
9740;BME280;4909;42.680;26.324;2024-03-29T05:36:28;98524.44;;;16.28;77.77
9740;BME280;4909;42.680;26.324;2024-03-29T05:38:55;98531.84;;;16.37;78.02
9740;BME280;4909;42.680;26.324;2024-03-29T05:41:22;98525.09;;;16.19;80.04
9740;BME280;4909;42.680;26.324;2024-03-29T05:43:50;98532.16;;;16.32;80.02
9740;BME280;4909;42.680;26.324;2024-03-29T05:46:17;98527.25;;;16.39;79.89
9740;BME280;4909;42.680;26.324;2024-03-29T05:48:45;98524.97;;;16.33;81.36
9740;BME280;4909;42.680;26.324;2024-03-29T05:51:12;98522.44;;;16.31;81.25
9740;BME280;4909;42.680;26.324;2024-03-29T05:53:42;98535.50;;;16.48;80.29
9740;BME280;4909;42.680;26.324;2024-03-29T05:56:09;98536.88;;;16.41;80.43
9740;BME280;4909;42.680;26.324;2024-03-29T05:58:36;98536.03;;;16.66;79.98
9740;BME280;4909;42.680;26.324;2024-03-29T06:01:03;98549.84;;;16.85;78.84
9740;BME280;4909;42.680;26.324;2024-03-29T06:03:30;98554.31;;;17.10;79.38
9740;BME280;4909;42.680;26.324;2024-03-29T06:05:59;98564.69;;;17.27;76.76
9740;BME280;4909;42.680;26.324;2024-03-29T06:08:26;98564.06;;;17.60;76.09
9740;BME280;4909;42.680;26.324;2024-03-29T06:10:53;98582.91;;;18.30;71.50
9740;BME280;4909;42.680;26.324;2024-03-29T06:13:20;98603.72;;;19.19;67.27
9740;BME280;4909;42.680;26.324;2024-03-29T06:16:17;98603.16;;;20.23;62.28
9740;BME280;4909;42.680;26.324;2024-03-29T06:19:01;98596.75;;;20.77;59.98
9740;BME280;4909;42.680;26.324;2024-03-29T06:21:29;98584.28;;;21.37;56.29
9740;BME280;4909;42.680;26.324;2024-03-29T06:24:04;98590.63;;;21.66;55.89
9740;BME280;4909;42.680;26.324;2024-03-29T06:26:31;98589.00;;;22.71;52.98
9740;BME280;4909;42.680;26.324;2024-03-29T06:28:58;98579.72;;;23.20;49.22
9740;BME280;4909;42.680;26.324;2024-03-29T06:31:25;98581.66;;;23.47;48.44
9740;BME280;4909;42.680;26.324;2024-03-29T06:33:55;98598.16;;;24.87;44.27
9740;BME280;4909;42.680;26.324;2024-03-29T06:36:23;98599.63;;;25.33;42.93
9740;BME280;4909;42.680;26.324;2024-03-29T06:38:55;98604.72;;;25.62;41.85
9740;BME280;4909;42.680;26.324;2024-03-29T06:41:26;98600.88;;;26.47;40.56
9740;BME280;4909;42.680;26.324;2024-03-29T06:43:55;98609.03;;;26.55;39.23
9740;BME280;4909;42.680;26.324;2024-03-29T06:46:24;98608.03;;;26.96;38.91
9740;BME280;4909;42.680;26.324;2024-03-29T06:48:51;98619.97;;;26.95;40.01
9740;BME280;4909;42.680;26.324;2024-03-29T06:51:18;98625.56;;;27.73;38.41
9740;BME280;4909;42.680;26.324;2024-03-29T06:53:45;98614.88;;;27.63;38.60
9740;BME280;4909;42.680;26.324;2024-03-29T06:56:15;98623.00;;;26.84;40.76
9740;BME280;4909;42.680;26.324;2024-03-29T06:58:45;98627.06;;;26.31;40.71
9740;BME280;4909;42.680;26.324;2024-03-29T07:01:12;98630.78;;;26.22;41.32
9740;BME280;4909;42.680;26.324;2024-03-29T07:03:39;98645.47;;;27.10;40.07
9740;BME280;4909;42.680;26.324;2024-03-29T07:06:06;98640.47;;;27.54;39.29
9740;BME280;4909;42.680;26.324;2024-03-29T07:08:33;98657.34;;;27.97;38.35
9740;BME280;4909;42.680;26.324;2024-03-29T07:11:00;98657.81;;;28.62;36.72
9740;BME280;4909;42.680;26.324;2024-03-29T07:13:30;98655.38;;;29.50;35.75
9740;BME280;4909;42.680;26.324;2024-03-29T07:16:01;98659.53;;;29.75;35.60
9740;BME280;4909;42.680;26.324;2024-03-29T07:18:28;98658.53;;;28.33;38.85
9740;BME280;4909;42.680;26.324;2024-03-29T07:20:55;98646.72;;;29.09;37.63
9740;BME280;4909;42.680;26.324;2024-03-29T07:23:22;98664.31;;;30.68;34.49
9740;BME280;4909;42.680;26.324;2024-03-29T07:26:00;98668.22;;;32.13;31.71
9740;BME280;4909;42.680;26.324;2024-03-29T07:28:30;98658.53;;;32.23;30.74
9740;BME280;4909;42.680;26.324;2024-03-29T07:30:57;98669.13;;;32.33;32.16
9740;BME280;4909;42.680;26.324;2024-03-29T07:33:24;98666.38;;;32.33;31.96
9740;BME280;4909;42.680;26.324;2024-03-29T07:35:53;98672.75;;;32.47;31.53
9740;BME280;4909;42.680;26.324;2024-03-29T07:38:21;98662.56;;;32.27;31.27
9740;BME280;4909;42.680;26.324;2024-03-29T07:40:49;98655.72;;;31.41;33.06
9740;BME280;4909;42.680;26.324;2024-03-29T07:43:18;98672.06;;;31.90;32.69
9740;BME280;4909;42.680;26.324;2024-03-29T07:45:46;98664.91;;;31.96;32.44
9740;BME280;4909;42.680;26.324;2024-03-29T07:48:14;98666.59;;;32.31;31.03
9740;BME280;4909;42.680;26.324;2024-03-29T07:50:41;98676.44;;;31.78;32.19
9740;BME280;4909;42.680;26.324;2024-03-29T07:53:08;98677.75;;;31.27;33.17
9740;BME280;4909;42.680;26.324;2024-03-29T07:55:36;98677.53;;;31.84;31.71
9740;BME280;4909;42.680;26.324;2024-03-29T07:58:04;98677.66;;;31.69;32.76
9740;BME280;4909;42.680;26.324;2024-03-29T08:00:32;98683.25;;;32.23;32.54
9740;BME280;4909;42.680;26.324;2024-03-29T08:03:01;98635.53;;;32.38;30.91
9740;BME280;4909;42.680;26.324;2024-03-29T08:05:28;98688.59;;;33.18;29.84
9740;BME280;4909;42.680;26.324;2024-03-29T08:07:55;98679.34;;;32.05;32.44
9740;BME280;4909;42.680;26.324;2024-03-29T08:10:22;98692.44;;;32.50;31.54
9740;BME280;4909;42.680;26.324;2024-03-29T08:12:49;98700.84;;;32.96;30.41
9740;BME280;4909;42.680;26.324;2024-03-29T08:15:16;98701.41;;;32.72;30.89
9740;BME280;4909;42.680;26.324;2024-03-29T08:17:44;98694.44;;;32.76;31.64
9740;BME280;4909;42.680;26.324;2024-03-29T08:20:12;98693.69;;;33.28;30.00
9740;BME280;4909;42.680;26.324;2024-03-29T08:22:39;98702.47;;;32.71;30.98
9740;BME280;4909;42.680;26.324;2024-03-29T08:25:07;98686.13;;;32.09;32.29
9740;BME280;4909;42.680;26.324;2024-03-29T08:27:34;98636.78;;;32.28;31.62
9740;BME280;4909;42.680;26.324;2024-03-29T08:30:01;98696.59;;;32.87;30.99
9740;BME280;4909;42.680;26.324;2024-03-29T08:32:28;98695.25;;;32.63;30.05
9740;BME280;4909;42.680;26.324;2024-03-29T08:34:55;98689.84;;;32.35;30.19
9740;BME280;4909;42.680;26.324;2024-03-29T08:37:24;98696.59;;;32.33;29.55
9740;BME280;4909;42.680;26.324;2024-03-29T08:39:51;98696.88;;;32.51;29.71
9740;BME280;4909;42.680;26.324;2024-03-29T08:42:18;98688.66;;;32.58;29.09
9740;BME280;4909;42.680;26.324;2024-03-29T08:44:45;98690.25;;;32.87;28.57
9740;BME280;4909;42.680;26.324;2024-03-29T08:47:12;98694.97;;;32.04;29.64
9740;BME280;4909;42.680;26.324;2024-03-29T08:49:39;98688.47;;;31.49;29.41
9740;BME280;4909;42.680;26.324;2024-03-29T08:52:06;98677.13;;;30.89;32.08
9740;BME280;4909;42.680;26.324;2024-03-29T08:54:35;98678.28;;;31.16;31.68
9740;BME280;4909;42.680;26.324;2024-03-29T08:57:02;98669.78;;;31.11;32.01
9740;BME280;4909;42.680;26.324;2024-03-29T08:59:29;98677.34;;;31.08;31.83
9740;BME280;4909;42.680;26.324;2024-03-29T09:02:03;98657.09;;;31.59;30.29
9740;BME280;4909;42.680;26.324;2024-03-29T09:04:31;98676.75;;;31.97;30.93
9740;BME280;4909;42.680;26.324;2024-03-29T09:06:59;98674.25;;;31.67;30.75
9740;BME280;4909;42.680;26.324;2024-03-29T09:09:27;98659.13;;;31.50;32.39
9740;BME280;4909;42.680;26.324;2024-03-29T09:11:56;98650.06;;;31.22;33.43
9740;BME280;4909;42.680;26.324;2024-03-29T09:14:23;98659.47;;;30.34;34.67
9740;BME280;4909;42.680;26.324;2024-03-29T09:16:50;98650.91;;;30.22;34.42
9740;BME280;4909;42.680;26.324;2024-03-29T09:19:18;98654.53;;;29.12;36.88
9740;BME280;4909;42.680;26.324;2024-03-29T09:21:45;98656.59;;;29.10;37.72
9740;BME280;4909;42.680;26.324;2024-03-29T09:24:12;98664.03;;;29.39;37.08
9740;BME280;4909;42.680;26.324;2024-03-29T09:26:39;98652.16;;;29.32;36.09
9740;BME280;4909;42.680;26.324;2024-03-29T09:29:08;98644.81;;;29.10;35.62
9740;BME280;4909;42.680;26.324;2024-03-29T09:31:35;98647.50;;;28.49;37.40
9740;BME280;4909;42.680;26.324;2024-03-29T09:34:02;98650.75;;;27.83;38.04
9740;BME280;4909;42.680;26.324;2024-03-29T09:36:29;98646.44;;;27.89;37.86
9740;BME280;4909;42.680;26.324;2024-03-29T09:38:56;98648.53;;;27.87;35.38
9740;BME280;4909;42.680;26.324;2024-03-29T09:41:25;98654.41;;;27.59;37.29
9740;BME280;4909;42.680;26.324;2024-03-29T09:43:54;98662.53;;;27.76;37.15
9740;BME280;4909;42.680;26.324;2024-03-29T09:46:27;98656.19;;;27.91;35.29
9740;BME280;4909;42.680;26.324;2024-03-29T09:48:55;98655.41;;;27.66;35.05
9740;BME280;4909;42.680;26.324;2024-03-29T09:51:24;98650.94;;;27.82;34.49
9740;BME280;4909;42.680;26.324;2024-03-29T09:53:53;98654.06;;;27.62;32.57
9740;BME280;4909;42.680;26.324;2024-03-29T09:56:25;98648.47;;;27.48;34.15
9740;BME280;4909;42.680;26.324;2024-03-29T09:58:52;98635.47;;;27.66;35.34
9740;BME280;4909;42.680;26.324;2024-03-29T10:01:20;98637.56;;;27.95;33.80
9740;BME280;4909;42.680;26.324;2024-03-29T10:03:50;98640.38;;;28.18;33.77
9740;BME280;4909;42.680;26.324;2024-03-29T10:06:18;98641.03;;;28.50;33.56
9740;BME280;4909;42.680;26.324;2024-03-29T10:08:46;98626.78;;;28.32;32.25
9740;BME280;4909;42.680;26.324;2024-03-29T10:11:14;98641.59;;;28.15;32.43
9740;BME280;4909;42.680;26.324;2024-03-29T10:13:44;98634.84;;;27.95;32.31
9740;BME280;4909;42.680;26.324;2024-03-29T10:16:11;98634.72;;;27.88;32.38
9740;BME280;4909;42.680;26.324;2024-03-29T10:18:40;98592.75;;;27.42;31.89
9740;BME280;4909;42.680;26.324;2024-03-29T10:21:10;98616.44;;;27.58;33.38
9740;BME280;4909;42.680;26.324;2024-03-29T10:23:37;98622.84;;;27.65;33.18
9740;BME280;4909;42.680;26.324;2024-03-29T10:26:06;98625.00;;;27.86;32.62
9740;BME280;4909;42.680;26.324;2024-03-29T10:28:34;98624.72;;;28.03;30.50
9740;BME280;4909;42.680;26.324;2024-03-29T10:31:01;98601.56;;;27.69;30.27
9740;BME280;4909;42.680;26.324;2024-03-29T10:33:29;98605.03;;;27.38;30.72
9740;BME280;4909;42.680;26.324;2024-03-29T10:35:57;98595.16;;;27.53;31.98
9740;BME280;4909;42.680;26.324;2024-03-29T10:38:26;98590.75;;;27.28;32.94
9740;BME280;4909;42.680;26.324;2024-03-29T10:40:53;98583.56;;;27.43;33.05
9740;BME280;4909;42.680;26.324;2024-03-29T10:43:21;98573.84;;;27.41;34.35
9740;BME280;4909;42.680;26.324;2024-03-29T10:45:48;98559.03;;;27.43;32.44
9740;BME280;4909;42.680;26.324;2024-03-29T10:48:20;98581.16;;;27.56;32.67
9740;BME280;4909;42.680;26.324;2024-03-29T10:50:48;98581.94;;;27.73;32.28
9740;BME280;4909;42.680;26.324;2024-03-29T10:53:17;98595.63;;;27.96;31.44
9740;BME280;4909;42.680;26.324;2024-03-29T10:55:45;98597.88;;;27.84;30.75
9740;BME280;4909;42.680;26.324;2024-03-29T10:58:14;98583.53;;;27.90;30.17
9740;BME280;4909;42.680;26.324;2024-03-29T11:00:46;98575.34;;;27.90;30.98
9740;BME280;4909;42.680;26.324;2024-03-29T11:03:16;98570.94;;;28.20;31.79
9740;BME280;4909;42.680;26.324;2024-03-29T11:05:47;98571.53;;;28.07;30.14
9740;BME280;4909;42.680;26.324;2024-03-29T11:08:18;98572.88;;;28.12;30.18
9740;BME280;4909;42.680;26.324;2024-03-29T11:10:49;98575.16;;;28.23;30.69
9740;BME280;4909;42.680;26.324;2024-03-29T11:13:20;98573.19;;;28.39;30.07
9740;BME280;4909;42.680;26.324;2024-03-29T11:15:50;98520.50;;;28.16;29.82
9740;BME280;4909;42.680;26.324;2024-03-29T11:18:19;98553.28;;;28.31;29.51
9740;BME280;4909;42.680;26.324;2024-03-29T11:20:47;98571.69;;;28.37;29.44
9740;BME280;4909;42.680;26.324;2024-03-29T11:23:17;98577.84;;;28.00;28.20
9740;BME280;4909;42.680;26.324;2024-03-29T11:25:48;98573.84;;;27.88;28.55
9740;BME280;4909;42.680;26.324;2024-03-29T11:28:22;98563.47;;;27.83;29.76
9740;BME280;4909;42.680;26.324;2024-03-29T11:30:50;98557.84;;;27.38;28.92
9740;BME280;4909;42.680;26.324;2024-03-29T11:33:28;98564.00;;;27.40;29.07
9740;BME280;4909;42.680;26.324;2024-03-29T11:35:55;98563.56;;;27.12;29.05
9740;BME280;4909;42.680;26.324;2024-03-29T11:38:29;98560.94;;;27.27;29.33
9740;BME280;4909;42.680;26.324;2024-03-29T11:41:05;98563.78;;;27.41;28.58
9740;BME280;4909;42.680;26.324;2024-03-29T11:43:33;98563.94;;;27.48;28.78
9740;BME280;4909;42.680;26.324;2024-03-29T11:46:01;98555.94;;;27.46;29.47
9740;BME280;4909;42.680;26.324;2024-03-29T11:48:29;98566.00;;;27.46;29.18
9740;BME280;4909;42.680;26.324;2024-03-29T11:50:57;98564.00;;;27.40;28.89
9740;BME280;4909;42.680;26.324;2024-03-29T11:53:24;98535.09;;;27.22;28.94
9740;BME280;4909;42.680;26.324;2024-03-29T11:55:52;98550.75;;;27.29;29.01
9740;BME280;4909;42.680;26.324;2024-03-29T11:58:22;98559.38;;;27.40;28.08
9740;BME280;4909;42.680;26.324;2024-03-29T12:00:49;98561.22;;;27.48;27.05
9740;BME280;4909;42.680;26.324;2024-03-29T12:03:17;98569.09;;;27.43;28.10
9740;BME280;4909;42.680;26.324;2024-03-29T12:05:46;98565.19;;;27.37;29.05
9740;BME280;4909;42.680;26.324;2024-03-29T12:08:14;98570.47;;;27.39;29.50
9740;BME280;4909;42.680;26.324;2024-03-29T12:10:43;98563.03;;;27.24;29.71
9740;BME280;4909;42.680;26.324;2024-03-29T12:13:10;98559.16;;;27.03;30.01
9740;BME280;4909;42.680;26.324;2024-03-29T12:15:40;98571.25;;;27.00;30.22
9740;BME280;4909;42.680;26.324;2024-03-29T12:18:08;98554.91;;;26.68;30.28
9740;BME280;4909;42.680;26.324;2024-03-29T12:20:35;98536.06;;;26.66;30.15
9740;BME280;4909;42.680;26.324;2024-03-29T12:23:04;98560.03;;;26.87;29.31
9740;BME280;4909;42.680;26.324;2024-03-29T12:25:39;98548.94;;;26.72;29.68
9740;BME280;4909;42.680;26.324;2024-03-29T12:28:06;98547.41;;;26.78;29.97
9740;BME280;4909;42.680;26.324;2024-03-29T12:30:33;98560.38;;;26.76;29.79
9740;BME280;4909;42.680;26.324;2024-03-29T12:33:05;98548.13;;;26.39;30.15
9740;BME280;4909;42.680;26.324;2024-03-29T12:35:34;98554.25;;;26.25;30.66
9740;BME280;4909;42.680;26.324;2024-03-29T12:38:02;98521.03;;;26.06;31.08
9740;BME280;4909;42.680;26.324;2024-03-29T12:40:31;98546.59;;;26.29;31.44
9740;BME280;4909;42.680;26.324;2024-03-29T12:43:04;98547.13;;;26.57;30.06
9740;BME280;4909;42.680;26.324;2024-03-29T12:45:33;98559.38;;;26.28;30.34
9740;BME280;4909;42.680;26.324;2024-03-29T12:48:00;98547.97;;;26.41;29.78
9740;BME280;4909;42.680;26.324;2024-03-29T12:50:29;98548.28;;;26.30;29.89
9740;BME280;4909;42.680;26.324;2024-03-29T12:52:57;98516.78;;;26.19;29.45
9740;BME280;4909;42.680;26.324;2024-03-29T12:55:28;98550.53;;;26.51;29.91
9740;BME280;4909;42.680;26.324;2024-03-29T12:57:57;98544.72;;;26.29;29.48
9740;BME280;4909;42.680;26.324;2024-03-29T13:00:28;98553.41;;;26.25;30.26
9740;BME280;4909;42.680;26.324;2024-03-29T13:02:55;98537.09;;;26.41;29.42
9740;BME280;4909;42.680;26.324;2024-03-29T13:05:22;98559.03;;;26.23;30.10
9740;BME280;4909;42.680;26.324;2024-03-29T13:07:51;98549.00;;;26.32;28.81
9740;BME280;4909;42.680;26.324;2024-03-29T13:10:18;98549.81;;;26.24;28.53
9740;BME280;4909;42.680;26.324;2024-03-29T13:12:46;98549.50;;;26.27;29.55
9740;BME280;4909;42.680;26.324;2024-03-29T13:15:16;98553.59;;;26.23;29.07